sensor_id;sensor_type;location;lat;lon;timestamp;P1;durP1;ratioP1;P2;durP2;ratioP2
22939;SDS011;11636;52.086;5.090;2022-11-20T00:02:17;18.55;;;12.02;;
22939;SDS011;11636;52.086;5.090;2022-11-20T00:04:44;19.00;;;11.73;;
22939;SDS011;11636;52.086;5.090;2022-11-20T00:07:28;21.95;;;12.13;;
22939;SDS011;11636;52.086;5.090;2022-11-20T00:10:01;19.35;;;12.10;;
22939;SDS011;11636;52.086;5.090;2022-11-20T00:12:29;19.77;;;11.63;;
22939;SDS011;11636;52.086;5.090;2022-11-20T00:14:56;15.77;;;10.63;;
22939;SDS011;11636;52.086;5.090;2022-11-20T00:17:29;17.73;;;11.60;;
22939;SDS011;11636;52.086;5.090;2022-11-20T00:19:56;19.50;;;11.48;;
22939;SDS011;11636;52.086;5.090;2022-11-20T00:22:31;20.08;;;12.32;;
22939;SDS011;11636;52.086;5.090;2022-11-20T00:24:57;19.10;;;12.02;;
22939;SDS011;11636;52.086;5.090;2022-11-20T00:27:40;22.27;;;13.07;;
22939;SDS011;11636;52.086;5.090;2022-11-20T00:30:07;20.00;;;12.55;;
22939;SDS011;11636;52.086;5.090;2022-11-20T00:32:42;20.65;;;12.57;;
22939;SDS011;11636;52.086;5.090;2022-11-20T00:35:09;19.42;;;12.32;;
22939;SDS011;11636;52.086;5.090;2022-11-20T00:37:42;20.30;;;13.15;;
22939;SDS011;11636;52.086;5.090;2022-11-20T00:40:09;20.63;;;13.13;;
22939;SDS011;11636;52.086;5.090;2022-11-20T00:42:43;21.60;;;13.82;;
22939;SDS011;11636;52.086;5.090;2022-11-20T00:45:17;20.88;;;12.95;;
22939;SDS011;11636;52.086;5.090;2022-11-20T00:47:50;22.95;;;12.90;;
22939;SDS011;11636;52.086;5.090;2022-11-20T00:50:17;18.20;;;11.80;;
22939;SDS011;11636;52.086;5.090;2022-11-20T00:52:44;18.90;;;11.38;;
22939;SDS011;11636;52.086;5.090;2022-11-20T00:55:21;18.65;;;11.77;;
22939;SDS011;11636;52.086;5.090;2022-11-20T00:57:52;18.48;;;10.98;;
22939;SDS011;11636;52.086;5.090;2022-11-20T01:00:30;15.25;;;10.23;;
22939;SDS011;11636;52.086;5.090;2022-11-20T01:03:00;16.27;;;10.02;;
22939;SDS011;11636;52.086;5.090;2022-11-20T01:05:35;15.65;;;10.30;;
22939;SDS011;11636;52.086;5.090;2022-11-20T01:08:10;13.75;;;9.18;;
22939;SDS011;11636;52.086;5.090;2022-11-20T01:10:36;16.75;;;10.93;;
22939;SDS011;11636;52.086;5.090;2022-11-20T01:13:06;17.67;;;11.18;;
22939;SDS011;11636;52.086;5.090;2022-11-20T01:16:01;17.90;;;11.63;;
22939;SDS011;11636;52.086;5.090;2022-11-20T01:18:47;17.65;;;10.85;;
22939;SDS011;11636;52.086;5.090;2022-11-20T01:21:19;18.80;;;11.43;;
22939;SDS011;11636;52.086;5.090;2022-11-20T01:23:55;20.63;;;12.07;;
22939;SDS011;11636;52.086;5.090;2022-11-20T01:26:30;18.63;;;12.00;;
22939;SDS011;11636;52.086;5.090;2022-11-20T01:29:05;17.95;;;11.95;;
22939;SDS011;11636;52.086;5.090;2022-11-20T01:31:36;20.00;;;12.18;;
22939;SDS011;11636;52.086;5.090;2022-11-20T01:34:13;19.35;;;11.75;;
22939;SDS011;11636;52.086;5.090;2022-11-20T01:36:43;17.38;;;11.60;;
22939;SDS011;11636;52.086;5.090;2022-11-20T01:39:20;19.45;;;11.75;;
22939;SDS011;11636;52.086;5.090;2022-11-20T01:41:50;19.25;;;12.10;;
22939;SDS011;11636;52.086;5.090;2022-11-20T01:44:51;17.70;;;10.88;;
22939;SDS011;11636;52.086;5.090;2022-11-20T01:47:34;17.52;;;11.43;;
22939;SDS011;11636;52.086;5.090;2022-11-20T01:50:19;19.50;;;11.83;;
22939;SDS011;11636;52.086;5.090;2022-11-20T01:53:16;18.13;;;11.02;;
22939;SDS011;11636;52.086;5.090;2022-11-20T01:55:54;18.63;;;12.18;;
22939;SDS011;11636;52.086;5.090;2022-11-20T01:58:30;19.02;;;11.73;;
22939;SDS011;11636;52.086;5.090;2022-11-20T02:01:10;20.25;;;12.63;;
22939;SDS011;11636;52.086;5.090;2022-11-20T02:03:39;18.83;;;11.90;;
22939;SDS011;11636;52.086;5.090;2022-11-20T02:06:35;17.88;;;11.38;;
22939;SDS011;11636;52.086;5.090;2022-11-20T02:09:06;17.48;;;11.38;;
22939;SDS011;11636;52.086;5.090;2022-11-20T02:11:39;19.48;;;11.63;;
22939;SDS011;11636;52.086;5.090;2022-11-20T02:14:12;20.02;;;12.18;;
22939;SDS011;11636;52.086;5.090;2022-11-20T02:16:48;16.65;;;10.75;;
22939;SDS011;11636;52.086;5.090;2022-11-20T02:19:23;20.42;;;12.02;;
22939;SDS011;11636;52.086;5.090;2022-11-20T02:22:01;17.80;;;11.27;;
22939;SDS011;11636;52.086;5.090;2022-11-20T02:24:36;19.95;;;12.23;;
22939;SDS011;11636;52.086;5.090;2022-11-20T02:27:10;19.27;;;10.55;;
22939;SDS011;11636;52.086;5.090;2022-11-20T02:32:36;16.42;;;10.13;;
22939;SDS011;11636;52.086;5.090;2022-11-20T02:37:58;15.50;;;9.52;;
22939;SDS011;11636;52.086;5.090;2022-11-20T02:40:27;18.52;;;9.98;;
22939;SDS011;11636;52.086;5.090;2022-11-20T02:43:00;15.95;;;10.30;;
22939;SDS011;11636;52.086;5.090;2022-11-20T02:45:41;17.02;;;10.98;;
22939;SDS011;11636;52.086;5.090;2022-11-20T02:50:50;16.58;;;10.57;;
22939;SDS011;11636;52.086;5.090;2022-11-20T02:53:23;17.33;;;10.63;;
22939;SDS011;11636;52.086;5.090;2022-11-20T02:55:50;17.15;;;11.05;;
22939;SDS011;11636;52.086;5.090;2022-11-20T02:58:25;18.45;;;10.98;;
22939;SDS011;11636;52.086;5.090;2022-11-20T03:00:56;17.33;;;11.02;;
22939;SDS011;11636;52.086;5.090;2022-11-20T03:03:29;18.30;;;11.02;;
22939;SDS011;11636;52.086;5.090;2022-11-20T03:05:58;17.60;;;10.32;;
22939;SDS011;11636;52.086;5.090;2022-11-20T03:08:25;17.15;;;11.10;;
22939;SDS011;11636;52.086;5.090;2022-11-20T03:11:02;20.17;;;12.25;;
22939;SDS011;11636;52.086;5.090;2022-11-20T03:13:30;17.42;;;11.10;;
22939;SDS011;11636;52.086;5.090;2022-11-20T03:16:23;18.55;;;10.75;;
22939;SDS011;11636;52.086;5.090;2022-11-20T03:18:51;19.40;;;11.65;;
22939;SDS011;11636;52.086;5.090;2022-11-20T03:21:25;18.08;;;10.95;;
22939;SDS011;11636;52.086;5.090;2022-11-20T03:23:53;21.27;;;12.00;;
22939;SDS011;11636;52.086;5.090;2022-11-20T03:26:21;21.55;;;12.15;;
22939;SDS011;11636;52.086;5.090;2022-11-20T03:28:57;17.27;;;10.75;;
22939;SDS011;11636;52.086;5.090;2022-11-20T03:31:33;18.70;;;11.75;;
22939;SDS011;11636;52.086;5.090;2022-11-20T03:34:02;17.95;;;11.27;;
22939;SDS011;11636;52.086;5.090;2022-11-20T03:36:30;18.13;;;11.40;;
22939;SDS011;11636;52.086;5.090;2022-11-20T03:39:05;19.38;;;11.43;;
22939;SDS011;11636;52.086;5.090;2022-11-20T03:41:40;18.30;;;10.75;;
22939;SDS011;11636;52.086;5.090;2022-11-20T03:44:09;17.23;;;10.55;;
22939;SDS011;11636;52.086;5.090;2022-11-20T03:46:43;19.00;;;11.32;;
22939;SDS011;11636;52.086;5.090;2022-11-20T03:49:10;16.13;;;10.35;;
22939;SDS011;11636;52.086;5.090;2022-11-20T03:51:37;17.23;;;10.73;;
22939;SDS011;11636;52.086;5.090;2022-11-20T03:54:10;17.17;;;10.35;;
22939;SDS011;11636;52.086;5.090;2022-11-20T03:56:38;19.55;;;11.50;;
22939;SDS011;11636;52.086;5.090;2022-11-20T03:59:05;19.70;;;11.63;;
22939;SDS011;11636;52.086;5.090;2022-11-20T04:01:39;17.75;;;11.27;;
22939;SDS011;11636;52.086;5.090;2022-11-20T04:04:19;18.30;;;11.27;;
22939;SDS011;11636;52.086;5.090;2022-11-20T04:06:52;20.02;;;12.02;;
22939;SDS011;11636;52.086;5.090;2022-11-20T04:09:29;17.83;;;11.15;;
22939;SDS011;11636;52.086;5.090;2022-11-20T04:11:58;18.75;;;11.73;;
22939;SDS011;11636;52.086;5.090;2022-11-20T04:14:32;19.85;;;11.85;;
22939;SDS011;11636;52.086;5.090;2022-11-20T04:16:58;17.80;;;11.25;;
22939;SDS011;11636;52.086;5.090;2022-11-20T04:19:31;19.40;;;11.75;;
22939;SDS011;11636;52.086;5.090;2022-11-20T04:21:58;18.70;;;11.25;;
22939;SDS011;11636;52.086;5.090;2022-11-20T04:24:40;18.10;;;11.05;;
22939;SDS011;11636;52.086;5.090;2022-11-20T04:27:13;17.45;;;10.60;;
22939;SDS011;11636;52.086;5.090;2022-11-20T04:29:46;17.05;;;10.35;;
22939;SDS011;11636;52.086;5.090;2022-11-20T04:32:14;16.40;;;9.85;;
22939;SDS011;11636;52.086;5.090;2022-11-20T04:34:47;16.40;;;9.88;;
22939;SDS011;11636;52.086;5.090;2022-11-20T04:37:13;15.98;;;9.90;;
22939;SDS011;11636;52.086;5.090;2022-11-20T04:39:47;15.25;;;9.65;;
22939;SDS011;11636;52.086;5.090;2022-11-20T04:42:13;18.38;;;10.90;;
22939;SDS011;11636;52.086;5.090;2022-11-20T04:45:01;18.08;;;11.15;;
22939;SDS011;11636;52.086;5.090;2022-11-20T04:47:35;18.50;;;10.98;;
22939;SDS011;11636;52.086;5.090;2022-11-20T04:50:02;17.73;;;11.15;;
22939;SDS011;11636;52.086;5.090;2022-11-20T04:52:35;17.40;;;10.60;;
22939;SDS011;11636;52.086;5.090;2022-11-20T04:55:03;18.60;;;11.30;;
22939;SDS011;11636;52.086;5.090;2022-11-20T04:57:38;18.13;;;10.77;;
22939;SDS011;11636;52.086;5.090;2022-11-20T05:00:05;18.70;;;11.57;;
22939;SDS011;11636;52.086;5.090;2022-11-20T05:02:33;18.25;;;10.88;;
22939;SDS011;11636;52.086;5.090;2022-11-20T05:05:09;20.70;;;11.57;;
22939;SDS011;11636;52.086;5.090;2022-11-20T05:07:36;20.30;;;12.07;;
22939;SDS011;11636;52.086;5.090;2022-11-20T05:10:09;16.38;;;10.65;;
22939;SDS011;11636;52.086;5.090;2022-11-20T05:12:42;18.02;;;11.10;;
22939;SDS011;11636;52.086;5.090;2022-11-20T05:15:16;20.50;;;12.30;;
22939;SDS011;11636;52.086;5.090;2022-11-20T05:17:49;20.75;;;12.13;;
22939;SDS011;11636;52.086;5.090;2022-11-20T05:20:23;17.35;;;10.77;;
22939;SDS011;11636;52.086;5.090;2022-11-20T05:22:59;22.05;;;12.40;;
22939;SDS011;11636;52.086;5.090;2022-11-20T05:25:25;19.17;;;11.93;;
22939;SDS011;11636;52.086;5.090;2022-11-20T05:28:03;17.60;;;10.95;;
22939;SDS011;11636;52.086;5.090;2022-11-20T05:30:30;19.50;;;11.88;;
22939;SDS011;11636;52.086;5.090;2022-11-20T05:33:04;19.60;;;11.45;;
22939;SDS011;11636;52.086;5.090;2022-11-20T05:35:37;20.55;;;11.73;;
22939;SDS011;11636;52.086;5.090;2022-11-20T05:38:13;17.08;;;11.10;;
22939;SDS011;11636;52.086;5.090;2022-11-20T05:40:47;17.63;;;11.10;;
22939;SDS011;11636;52.086;5.090;2022-11-20T05:43:13;19.35;;;11.63;;
22939;SDS011;11636;52.086;5.090;2022-11-20T05:45:55;19.77;;;12.07;;
22939;SDS011;11636;52.086;5.090;2022-11-20T05:48:29;22.13;;;12.85;;
22939;SDS011;11636;52.086;5.090;2022-11-20T05:51:10;21.05;;;11.82;;
22939;SDS011;11636;52.086;5.090;2022-11-20T05:53:40;17.50;;;11.35;;
22939;SDS011;11636;52.086;5.090;2022-11-20T05:56:18;21.58;;;12.38;;
22939;SDS011;11636;52.086;5.090;2022-11-20T05:58:54;17.55;;;10.55;;
22939;SDS011;11636;52.086;5.090;2022-11-20T06:01:22;16.42;;;10.77;;
22939;SDS011;11636;52.086;5.090;2022-11-20T06:03:57;19.52;;;11.88;;
22939;SDS011;11636;52.086;5.090;2022-11-20T06:06:30;19.23;;;11.70;;
22939;SDS011;11636;52.086;5.090;2022-11-20T06:09:03;19.60;;;12.00;;
22939;SDS011;11636;52.086;5.090;2022-11-20T06:11:29;17.67;;;10.77;;
22939;SDS011;11636;52.086;5.090;2022-11-20T06:14:03;17.95;;;11.05;;
22939;SDS011;11636;52.086;5.090;2022-11-20T06:16:30;18.73;;;11.02;;
22939;SDS011;11636;52.086;5.090;2022-11-20T06:18:56;19.50;;;11.70;;
22939;SDS011;11636;52.086;5.090;2022-11-20T06:21:36;18.35;;;11.50;;
22939;SDS011;11636;52.086;5.090;2022-11-20T06:24:10;19.15;;;11.43;;
22939;SDS011;11636;52.086;5.090;2022-11-20T06:26:37;18.50;;;11.60;;
22939;SDS011;11636;52.086;5.090;2022-11-20T06:29:11;18.75;;;11.80;;
22939;SDS011;11636;52.086;5.090;2022-11-20T06:31:44;19.55;;;12.30;;
22939;SDS011;11636;52.086;5.090;2022-11-20T06:34:18;17.88;;;11.20;;
22939;SDS011;11636;52.086;5.090;2022-11-20T06:36:45;19.42;;;12.07;;
22939;SDS011;11636;52.086;5.090;2022-11-20T06:39:11;19.02;;;12.05;;
22939;SDS011;11636;52.086;5.090;2022-11-20T06:41:46;20.38;;;12.63;;
22939;SDS011;11636;52.086;5.090;2022-11-20T06:44:12;18.75;;;12.43;;
22939;SDS011;11636;52.086;5.090;2022-11-20T06:46:46;20.65;;;12.35;;
22939;SDS011;11636;52.086;5.090;2022-11-20T06:49:12;20.75;;;12.45;;
22939;SDS011;11636;52.086;5.090;2022-11-20T06:51:39;18.48;;;11.90;;
22939;SDS011;11636;52.086;5.090;2022-11-20T06:54:13;20.15;;;12.07;;
22939;SDS011;11636;52.086;5.090;2022-11-20T06:56:39;19.33;;;12.75;;
22939;SDS011;11636;52.086;5.090;2022-11-20T06:59:13;19.08;;;12.07;;
22939;SDS011;11636;52.086;5.090;2022-11-20T07:01:40;22.30;;;14.30;;
22939;SDS011;11636;52.086;5.090;2022-11-20T07:04:14;20.05;;;12.80;;
22939;SDS011;11636;52.086;5.090;2022-11-20T07:06:41;21.23;;;12.45;;
22939;SDS011;11636;52.086;5.090;2022-11-20T07:09:07;20.85;;;12.88;;
22939;SDS011;11636;52.086;5.090;2022-11-20T07:11:41;19.40;;;12.43;;
22939;SDS011;11636;52.086;5.090;2022-11-20T07:14:07;18.85;;;11.75;;
22939;SDS011;11636;52.086;5.090;2022-11-20T07:16:34;22.38;;;13.27;;
22939;SDS011;11636;52.086;5.090;2022-11-20T07:19:08;21.60;;;12.50;;
22939;SDS011;11636;52.086;5.090;2022-11-20T07:21:34;19.52;;;12.05;;
22939;SDS011;11636;52.086;5.090;2022-11-20T07:24:08;19.55;;;12.90;;
22939;SDS011;11636;52.086;5.090;2022-11-20T07:26:35;19.27;;;12.52;;
22939;SDS011;11636;52.086;5.090;2022-11-20T07:29:01;17.95;;;11.52;;
22939;SDS011;11636;52.086;5.090;2022-11-20T07:31:35;17.75;;;11.57;;
22939;SDS011;11636;52.086;5.090;2022-11-20T07:34:08;20.00;;;12.27;;
22939;SDS011;11636;52.086;5.090;2022-11-20T07:36:35;19.98;;;12.88;;
22939;SDS011;11636;52.086;5.090;2022-11-20T07:39:09;19.75;;;11.98;;
22939;SDS011;11636;52.086;5.090;2022-11-20T07:41:35;20.33;;;12.73;;
22939;SDS011;11636;52.086;5.090;2022-11-20T07:44:09;18.05;;;12.10;;
22939;SDS011;11636;52.086;5.090;2022-11-20T07:46:42;18.02;;;11.60;;
22939;SDS011;11636;52.086;5.090;2022-11-20T07:49:09;17.23;;;11.48;;
22939;SDS011;11636;52.086;5.090;2022-11-20T07:51:36;15.88;;;10.80;;
22939;SDS011;11636;52.086;5.090;2022-11-20T07:54:09;18.60;;;11.57;;
22939;SDS011;11636;52.086;5.090;2022-11-20T07:56:40;15.80;;;10.60;;
22939;SDS011;11636;52.086;5.090;2022-11-20T07:59:14;19.73;;;12.27;;
22939;SDS011;11636;52.086;5.090;2022-11-20T08:01:42;19.27;;;12.50;;
22939;SDS011;11636;52.086;5.090;2022-11-20T08:04:22;22.10;;;12.82;;
22939;SDS011;11636;52.086;5.090;2022-11-20T08:06:51;19.40;;;12.50;;
22939;SDS011;11636;52.086;5.090;2022-11-20T08:09:18;18.55;;;11.95;;
22939;SDS011;11636;52.086;5.090;2022-11-20T08:11:52;17.90;;;12.15;;
22939;SDS011;11636;52.086;5.090;2022-11-20T08:14:44;19.50;;;11.77;;
22939;SDS011;11636;52.086;5.090;2022-11-20T08:17:17;19.40;;;11.95;;
22939;SDS011;11636;52.086;5.090;2022-11-20T08:19:52;17.63;;;11.77;;
22939;SDS011;11636;52.086;5.090;2022-11-20T08:22:19;17.33;;;11.45;;
22939;SDS011;11636;52.086;5.090;2022-11-20T08:24:54;19.98;;;12.00;;
22939;SDS011;11636;52.086;5.090;2022-11-20T08:27:20;16.38;;;10.70;;
22939;SDS011;11636;52.086;5.090;2022-11-20T08:29:47;18.02;;;11.35;;
22939;SDS011;11636;52.086;5.090;2022-11-20T08:32:21;16.63;;;11.00;;
22939;SDS011;11636;52.086;5.090;2022-11-20T08:34:48;18.83;;;11.98;;
22939;SDS011;11636;52.086;5.090;2022-11-20T08:37:22;15.25;;;10.75;;
22939;SDS011;11636;52.086;5.090;2022-11-20T08:39:49;19.23;;;12.13;;
22939;SDS011;11636;52.086;5.090;2022-11-20T08:42:22;17.20;;;11.50;;
22939;SDS011;11636;52.086;5.090;2022-11-20T08:44:55;16.60;;;10.85;;
22939;SDS011;11636;52.086;5.090;2022-11-20T08:47:28;16.95;;;11.07;;
22939;SDS011;11636;52.086;5.090;2022-11-20T08:50:02;17.90;;;12.18;;
22939;SDS011;11636;52.086;5.090;2022-11-20T08:52:32;17.48;;;12.02;;
22939;SDS011;11636;52.086;5.090;2022-11-20T08:55:06;15.18;;;9.77;;
22939;SDS011;11636;52.086;5.090;2022-11-20T08:57:37;17.70;;;12.07;;
22939;SDS011;11636;52.086;5.090;2022-11-20T09:00:05;16.05;;;11.38;;
22939;SDS011;11636;52.086;5.090;2022-11-20T09:02:40;16.92;;;11.77;;
22939;SDS011;11636;52.086;5.090;2022-11-20T09:05:07;15.30;;;10.65;;
22939;SDS011;11636;52.086;5.090;2022-11-20T09:07:34;14.20;;;9.93;;
22939;SDS011;11636;52.086;5.090;2022-11-20T09:10:14;17.15;;;10.73;;
22939;SDS011;11636;52.086;5.090;2022-11-20T09:12:50;19.75;;;12.40;;
22939;SDS011;11636;52.086;5.090;2022-11-20T09:15:24;14.40;;;9.70;;
22939;SDS011;11636;52.086;5.090;2022-11-20T09:18:04;12.30;;;7.97;;
22939;SDS011;11636;52.086;5.090;2022-11-20T09:20:32;14.02;;;9.73;;
22939;SDS011;11636;52.086;5.090;2022-11-20T09:23:07;14.85;;;9.95;;
22939;SDS011;11636;52.086;5.090;2022-11-20T09:25:41;16.33;;;11.05;;
22939;SDS011;11636;52.086;5.090;2022-11-20T09:28:08;12.18;;;8.60;;
22939;SDS011;11636;52.086;5.090;2022-11-20T09:30:35;15.60;;;10.95;;
22939;SDS011;11636;52.086;5.090;2022-11-20T09:33:17;17.95;;;12.18;;
22939;SDS011;11636;52.086;5.090;2022-11-20T09:35:44;16.08;;;11.18;;
22939;SDS011;11636;52.086;5.090;2022-11-20T09:38:19;14.73;;;9.70;;
22939;SDS011;11636;52.086;5.090;2022-11-20T09:41:02;18.02;;;12.55;;
22939;SDS011;11636;52.086;5.090;2022-11-20T09:52:16;16.75;;;11.68;;
22939;SDS011;11636;52.086;5.090;2022-11-20T09:57:33;19.25;;;13.13;;
22939;SDS011;11636;52.086;5.090;2022-11-20T10:00:10;16.98;;;10.98;;
22939;SDS011;11636;52.086;5.090;2022-11-20T10:03:10;16.85;;;12.02;;
22939;SDS011;11636;52.086;5.090;2022-11-20T10:05:44;18.83;;;13.23;;
22939;SDS011;11636;52.086;5.090;2022-11-20T10:11:09;14.48;;;9.60;;
22939;SDS011;11636;52.086;5.090;2022-11-20T10:24:55;16.60;;;11.82;;
22939;SDS011;11636;52.086;5.090;2022-11-20T10:28:01;21.38;;;14.05;;
22939;SDS011;11636;52.086;5.090;2022-11-20T10:30:48;16.52;;;11.55;;
22939;SDS011;11636;52.086;5.090;2022-11-20T10:33:41;17.15;;;12.20;;
22939;SDS011;11636;52.086;5.090;2022-11-20T10:36:36;17.42;;;11.23;;
22939;SDS011;11636;52.086;5.090;2022-11-20T10:39:18;20.35;;;14.05;;
22939;SDS011;11636;52.086;5.090;2022-11-20T10:41:58;18.85;;;12.85;;
22939;SDS011;11636;52.086;5.090;2022-11-20T10:44:33;19.55;;;13.57;;
22939;SDS011;11636;52.086;5.090;2022-11-20T10:47:24;16.98;;;12.38;;
22939;SDS011;11636;52.086;5.090;2022-11-20T10:50:03;14.50;;;11.05;;
22939;SDS011;11636;52.086;5.090;2022-11-20T10:52:45;18.40;;;12.73;;
22939;SDS011;11636;52.086;5.090;2022-11-20T10:55:42;19.95;;;13.10;;
22939;SDS011;11636;52.086;5.090;2022-11-20T10:58:15;19.65;;;14.25;;
22939;SDS011;11636;52.086;5.090;2022-11-20T11:00:51;21.67;;;15.23;;
22939;SDS011;11636;52.086;5.090;2022-11-20T11:03:28;18.50;;;12.98;;
22939;SDS011;11636;52.086;5.090;2022-11-20T11:08:39;23.67;;;15.45;;
22939;SDS011;11636;52.086;5.090;2022-11-20T11:14:03;22.60;;;15.75;;
22939;SDS011;11636;52.086;5.090;2022-11-20T11:16:54;20.83;;;14.80;;
22939;SDS011;11636;52.086;5.090;2022-11-20T11:19:23;22.02;;;14.43;;
22939;SDS011;11636;52.086;5.090;2022-11-20T11:21:56;23.70;;;16.08;;
22939;SDS011;11636;52.086;5.090;2022-11-20T11:24:27;19.52;;;13.00;;
22939;SDS011;11636;52.086;5.090;2022-11-20T11:27:12;22.48;;;15.45;;
22939;SDS011;11636;52.086;5.090;2022-11-20T11:30:12;21.77;;;14.65;;
22939;SDS011;11636;52.086;5.090;2022-11-20T11:32:49;20.92;;;14.93;;
22939;SDS011;11636;52.086;5.090;2022-11-20T11:35:27;22.30;;;14.32;;
22939;SDS011;11636;52.086;5.090;2022-11-20T11:38:02;19.38;;;13.85;;
22939;SDS011;11636;52.086;5.090;2022-11-20T11:40:43;21.42;;;15.00;;
22939;SDS011;11636;52.086;5.090;2022-11-20T11:43:19;20.48;;;14.18;;
22939;SDS011;11636;52.086;5.090;2022-11-20T11:51:26;21.70;;;14.85;;
22939;SDS011;11636;52.086;5.090;2022-11-20T11:54:23;22.50;;;15.02;;
22939;SDS011;11636;52.086;5.090;2022-11-20T11:56:59;27.95;;;17.70;;
22939;SDS011;11636;52.086;5.090;2022-11-20T12:02:24;21.65;;;14.57;;
22939;SDS011;11636;52.086;5.090;2022-11-20T12:05:03;25.65;;;16.20;;
22939;SDS011;11636;52.086;5.090;2022-11-20T12:07:54;27.75;;;16.92;;
22939;SDS011;11636;52.086;5.090;2022-11-20T12:10:57;28.67;;;17.50;;
22939;SDS011;11636;52.086;5.090;2022-11-20T12:16:40;24.63;;;16.42;;
22939;SDS011;11636;52.086;5.090;2022-11-20T12:19:14;30.08;;;19.05;;
22939;SDS011;11636;52.086;5.090;2022-11-20T12:30:22;28.17;;;17.98;;
22939;SDS011;11636;52.086;5.090;2022-11-20T12:36:19;28.33;;;17.70;;
22939;SDS011;11636;52.086;5.090;2022-11-20T12:39:02;25.70;;;17.23;;
22939;SDS011;11636;52.086;5.090;2022-11-20T12:41:54;37.95;;;22.98;;
22939;SDS011;11636;52.086;5.090;2022-11-20T12:45:02;29.52;;;18.33;;
22939;SDS011;11636;52.086;5.090;2022-11-20T12:53:51;34.58;;;20.27;;
22939;SDS011;11636;52.086;5.090;2022-11-20T13:07:40;38.58;;;22.70;;
22939;SDS011;11636;52.086;5.090;2022-11-20T13:10:49;30.80;;;19.67;;
22939;SDS011;11636;52.086;5.090;2022-11-20T13:19:00;39.85;;;24.80;;
22939;SDS011;11636;52.086;5.090;2022-11-20T13:21:36;36.45;;;23.13;;
22939;SDS011;11636;52.086;5.090;2022-11-20T13:24:22;44.13;;;27.00;;
22939;SDS011;11636;52.086;5.090;2022-11-20T13:29:45;42.55;;;25.38;;
22939;SDS011;11636;52.086;5.090;2022-11-20T13:32:17;38.55;;;23.60;;
22939;SDS011;11636;52.086;5.090;2022-11-20T13:34:53;42.97;;;27.27;;
22939;SDS011;11636;52.086;5.090;2022-11-20T13:37:31;44.88;;;26.40;;
22939;SDS011;11636;52.086;5.090;2022-11-20T13:42:40;49.40;;;28.70;;
22939;SDS011;11636;52.086;5.090;2022-11-20T13:45:29;41.00;;;24.70;;
22939;SDS011;11636;52.086;5.090;2022-11-20T13:50:48;40.03;;;24.08;;
22939;SDS011;11636;52.086;5.090;2022-11-20T13:56:58;38.30;;;22.73;;
22939;SDS011;11636;52.086;5.090;2022-11-20T14:05:27;38.88;;;25.20;;
22939;SDS011;11636;52.086;5.090;2022-11-20T14:08:04;45.50;;;26.50;;
22939;SDS011;11636;52.086;5.090;2022-11-20T14:10:38;35.45;;;23.50;;
22939;SDS011;11636;52.086;5.090;2022-11-20T14:13:19;42.72;;;25.67;;
22939;SDS011;11636;52.086;5.090;2022-11-20T14:15:46;39.78;;;24.92;;
22939;SDS011;11636;52.086;5.090;2022-11-20T14:18:26;37.60;;;22.85;;
22939;SDS011;11636;52.086;5.090;2022-11-20T14:20:54;42.05;;;26.75;;
22939;SDS011;11636;52.086;5.090;2022-11-20T14:23:28;34.22;;;21.75;;
22939;SDS011;11636;52.086;5.090;2022-11-20T14:25:56;42.75;;;26.05;;
22939;SDS011;11636;52.086;5.090;2022-11-20T14:28:27;41.55;;;26.02;;
22939;SDS011;11636;52.086;5.090;2022-11-20T14:31:02;47.78;;;25.88;;
22939;SDS011;11636;52.086;5.090;2022-11-20T14:33:36;44.38;;;26.77;;
22939;SDS011;11636;52.086;5.090;2022-11-20T14:36:04;41.90;;;25.92;;
22939;SDS011;11636;52.086;5.090;2022-11-20T14:38:31;48.63;;;27.77;;
22939;SDS011;11636;52.086;5.090;2022-11-20T14:41:09;45.22;;;27.52;;
22939;SDS011;11636;52.086;5.090;2022-11-20T14:43:58;47.33;;;28.02;;
22939;SDS011;11636;52.086;5.090;2022-11-20T14:46:33;36.78;;;24.27;;
22939;SDS011;11636;52.086;5.090;2022-11-20T14:49:00;42.80;;;27.02;;
22939;SDS011;11636;52.086;5.090;2022-11-20T14:51:33;43.38;;;26.60;;
22939;SDS011;11636;52.086;5.090;2022-11-20T14:54:17;40.90;;;25.92;;
22939;SDS011;11636;52.086;5.090;2022-11-20T14:56:57;42.40;;;26.23;;
22939;SDS011;11636;52.086;5.090;2022-11-20T14:59:33;43.10;;;25.02;;
22939;SDS011;11636;52.086;5.090;2022-11-20T15:02:04;48.50;;;28.10;;
22939;SDS011;11636;52.086;5.090;2022-11-20T15:04:49;40.60;;;24.75;;
22939;SDS011;11636;52.086;5.090;2022-11-20T15:07:23;47.58;;;28.70;;
22939;SDS011;11636;52.086;5.090;2022-11-20T15:10:12;51.65;;;30.10;;
22939;SDS011;11636;52.086;5.090;2022-11-20T15:12:48;39.42;;;24.20;;
22939;SDS011;11636;52.086;5.090;2022-11-20T15:15:30;42.15;;;26.23;;
22939;SDS011;11636;52.086;5.090;2022-11-20T15:18:19;47.45;;;27.95;;
22939;SDS011;11636;52.086;5.090;2022-11-20T15:20:57;44.50;;;26.42;;
22939;SDS011;11636;52.086;5.090;2022-11-20T15:23:42;40.63;;;23.92;;
22939;SDS011;11636;52.086;5.090;2022-11-20T15:26:10;45.45;;;26.52;;
22939;SDS011;11636;52.086;5.090;2022-11-20T15:28:46;41.28;;;23.55;;
22939;SDS011;11636;52.086;5.090;2022-11-20T15:31:23;39.75;;;23.98;;
22939;SDS011;11636;52.086;5.090;2022-11-20T15:33:50;40.30;;;25.27;;
22939;SDS011;11636;52.086;5.090;2022-11-20T15:36:24;38.33;;;23.77;;
22939;SDS011;11636;52.086;5.090;2022-11-20T15:38:51;37.78;;;23.35;;
22939;SDS011;11636;52.086;5.090;2022-11-20T15:41:18;37.90;;;22.63;;
22939;SDS011;11636;52.086;5.090;2022-11-20T15:43:56;31.45;;;20.20;;
22939;SDS011;11636;52.086;5.090;2022-11-20T15:46:25;42.58;;;26.30;;
22939;SDS011;11636;52.086;5.090;2022-11-20T15:49:01;44.03;;;26.85;;
22939;SDS011;11636;52.086;5.090;2022-11-20T15:51:29;37.42;;;22.83;;
22939;SDS011;11636;52.086;5.090;2022-11-20T15:53:58;36.67;;;22.70;;
22939;SDS011;11636;52.086;5.090;2022-11-20T15:56:32;38.90;;;24.27;;
22939;SDS011;11636;52.086;5.090;2022-11-20T15:58:59;35.92;;;22.73;;
22939;SDS011;11636;52.086;5.090;2022-11-20T16:01:26;34.13;;;22.30;;
22939;SDS011;11636;52.086;5.090;2022-11-20T16:04:00;36.50;;;22.85;;
22939;SDS011;11636;52.086;5.090;2022-11-20T16:06:27;36.85;;;23.55;;
22939;SDS011;11636;52.086;5.090;2022-11-20T16:08:57;35.42;;;22.23;;
22939;SDS011;11636;52.086;5.090;2022-11-20T16:11:30;31.23;;;19.95;;
22939;SDS011;11636;52.086;5.090;2022-11-20T16:14:11;31.05;;;20.85;;
22939;SDS011;11636;52.086;5.090;2022-11-20T16:16:57;27.73;;;18.40;;
22939;SDS011;11636;52.086;5.090;2022-11-20T16:19:31;31.30;;;20.27;;
22939;SDS011;11636;52.086;5.090;2022-11-20T16:21:59;29.67;;;20.15;;
22939;SDS011;11636;52.086;5.090;2022-11-20T16:24:28;32.42;;;19.35;;
22939;SDS011;11636;52.086;5.090;2022-11-20T16:27:02;30.10;;;18.85;;
22939;SDS011;11636;52.086;5.090;2022-11-20T16:29:29;28.45;;;19.25;;
22939;SDS011;11636;52.086;5.090;2022-11-20T16:31:56;27.88;;;19.80;;
22939;SDS011;11636;52.086;5.090;2022-11-20T16:34:30;27.85;;;19.05;;
22939;SDS011;11636;52.086;5.090;2022-11-20T16:37:03;33.13;;;21.77;;
22939;SDS011;11636;52.086;5.090;2022-11-20T16:39:36;31.92;;;21.67;;
22939;SDS011;11636;52.086;5.090;2022-11-20T16:42:03;33.67;;;21.80;;
22939;SDS011;11636;52.086;5.090;2022-11-20T16:44:30;30.17;;;20.55;;
22939;SDS011;11636;52.086;5.090;2022-11-20T16:47:04;32.70;;;21.55;;